sensor_id;sensor_type;location;lat;lon;timestamp;P1;durP1;ratioP1;P2;durP2;ratioP2
20397;SDS011;10358;49.590;11.030;2023-05-10T00:00:11;5.33;;;2.87;;
20397;SDS011;10358;49.590;11.030;2023-05-10T00:02:37;3.30;;;2.80;;
20397;SDS011;10358;49.590;11.030;2023-05-10T00:05:03;6.90;;;3.37;;
20397;SDS011;10358;49.590;11.030;2023-05-10T00:07:30;4.60;;;3.70;;
20397;SDS011;10358;49.590;11.030;2023-05-10T00:09:58;8.60;;;3.72;;
20397;SDS011;10358;49.590;11.030;2023-05-10T00:12:26;5.40;;;3.72;;
20397;SDS011;10358;49.590;11.030;2023-05-10T00:14:52;5.47;;;3.60;;
20397;SDS011;10358;49.590;11.030;2023-05-10T00:17:17;7.40;;;3.50;;
20397;SDS011;10358;49.590;11.030;2023-05-10T00:19:43;7.55;;;4.28;;
20397;SDS011;10358;49.590;11.030;2023-05-10T00:22:08;7.95;;;4.10;;
20397;SDS011;10358;49.590;11.030;2023-05-10T00:24:35;6.43;;;3.97;;
20397;SDS011;10358;49.590;11.030;2023-05-10T00:27:01;7.78;;;4.32;;
20397;SDS011;10358;49.590;11.030;2023-05-10T00:29:29;5.68;;;4.05;;
20397;SDS011;10358;49.590;11.030;2023-05-10T00:31:54;6.95;;;4.53;;
20397;SDS011;10358;49.590;11.030;2023-05-10T00:34:21;11.93;;;4.57;;
20397;SDS011;10358;49.590;11.030;2023-05-10T00:36:46;11.63;;;4.60;;
20397;SDS011;10358;49.590;11.030;2023-05-10T00:39:12;6.32;;;4.25;;
20397;SDS011;10358;49.590;11.030;2023-05-10T00:41:43;6.90;;;4.50;;
20397;SDS011;10358;49.590;11.030;2023-05-10T00:44:08;8.03;;;4.70;;
20397;SDS011;10358;49.590;11.030;2023-05-10T00:46:34;7.13;;;4.63;;
20397;SDS011;10358;49.590;11.030;2023-05-10T00:49:00;8.30;;;4.60;;
20397;SDS011;10358;49.590;11.030;2023-05-10T00:51:27;8.17;;;4.77;;
20397;SDS011;10358;49.590;11.030;2023-05-10T00:53:52;6.60;;;4.53;;
20397;SDS011;10358;49.590;11.030;2023-05-10T00:56:18;7.33;;;4.53;;
20397;SDS011;10358;49.590;11.030;2023-05-10T00:58:47;6.40;;;4.60;;
20397;SDS011;10358;49.590;11.030;2023-05-10T01:01:13;6.67;;;4.73;;
20397;SDS011;10358;49.590;11.030;2023-05-10T01:03:39;6.97;;;4.90;;
20397;SDS011;10358;49.590;11.030;2023-05-10T01:06:05;6.17;;;4.80;;
20397;SDS011;10358;49.590;11.030;2023-05-10T01:08:36;9.55;;;4.93;;
20397;SDS011;10358;49.590;11.030;2023-05-10T01:11:01;6.53;;;5.20;;
20397;SDS011;10358;49.590;11.030;2023-05-10T01:13:37;7.50;;;4.77;;
20397;SDS011;10358;49.590;11.030;2023-05-10T01:16:04;8.80;;;5.53;;
20397;SDS011;10358;49.590;11.030;2023-05-10T01:18:33;6.67;;;4.80;;
20397;SDS011;10358;49.590;11.030;2023-05-10T01:27:02;7.80;;;5.57;;
20397;SDS011;10358;49.590;11.030;2023-05-10T01:35:37;7.37;;;5.50;;
20397;SDS011;10358;49.590;11.030;2023-05-10T01:38:24;7.83;;;6.07;;
20397;SDS011;10358;49.590;11.030;2023-05-10T01:41:25;9.07;;;5.77;;
20397;SDS011;10358;49.590;11.030;2023-05-10T01:44:06;10.80;;;5.67;;
20397;SDS011;10358;49.590;11.030;2023-05-10T01:47:20;8.30;;;6.33;;
20397;SDS011;10358;49.590;11.030;2023-05-10T01:49:49;12.13;;;6.00;;
20397;SDS011;10358;49.590;11.030;2023-05-10T01:52:18;8.10;;;5.87;;
20397;SDS011;10358;49.590;11.030;2023-05-10T01:54:49;9.50;;;5.93;;
20397;SDS011;10358;49.590;11.030;2023-05-10T01:57:20;7.87;;;5.97;;
20397;SDS011;10358;49.590;11.030;2023-05-10T01:59:50;9.57;;;6.23;;
20397;SDS011;10358;49.590;11.030;2023-05-10T02:02:18;11.10;;;6.43;;
20397;SDS011;10358;49.590;11.030;2023-05-10T02:04:48;10.83;;;6.23;;
20397;SDS011;10358;49.590;11.030;2023-05-10T02:07:15;9.37;;;6.57;;
20397;SDS011;10358;49.590;11.030;2023-05-10T02:09:43;8.77;;;6.43;;
20397;SDS011;10358;49.590;11.030;2023-05-10T02:12:12;11.73;;;6.90;;
20397;SDS011;10358;49.590;11.030;2023-05-10T02:14:38;10.97;;;6.67;;
20397;SDS011;10358;49.590;11.030;2023-05-10T02:17:06;11.23;;;7.17;;
20397;SDS011;10358;49.590;11.030;2023-05-10T02:19:34;10.87;;;6.50;;
20397;SDS011;10358;49.590;11.030;2023-05-10T02:22:02;9.20;;;6.80;;
20397;SDS011;10358;49.590;11.030;2023-05-10T02:24:28;9.20;;;6.80;;
20397;SDS011;10358;49.590;11.030;2023-05-10T02:26:55;9.80;;;7.20;;
20397;SDS011;10358;49.590;11.030;2023-05-10T02:29:22;10.07;;;6.70;;
20397;SDS011;10358;49.590;11.030;2023-05-10T02:31:51;10.97;;;7.07;;
20397;SDS011;10358;49.590;11.030;2023-05-10T02:34:18;12.87;;;7.90;;
20397;SDS011;10358;49.590;11.030;2023-05-10T02:36:46;12.83;;;7.70;;
20397;SDS011;10358;49.590;11.030;2023-05-10T02:39:12;9.83;;;7.03;;
20397;SDS011;10358;49.590;11.030;2023-05-10T02:41:40;9.37;;;7.40;;
20397;SDS011;10358;49.590;11.030;2023-05-10T02:44:08;11.77;;;7.20;;
20397;SDS011;10358;49.590;11.030;2023-05-10T02:46:34;9.60;;;7.80;;
20397;SDS011;10358;49.590;11.030;2023-05-10T02:49:01;10.07;;;7.57;;
20397;SDS011;10358;49.590;11.030;2023-05-10T02:51:28;12.57;;;8.17;;
20397;SDS011;10358;49.590;11.030;2023-05-10T02:53:57;10.40;;;8.10;;
20397;SDS011;10358;49.590;11.030;2023-05-10T02:56:30;16.00;;;9.10;;
20397;SDS011;10358;49.590;11.030;2023-05-10T02:58:59;11.27;;;8.30;;
20397;SDS011;10358;49.590;11.030;2023-05-10T03:01:24;11.30;;;8.40;;
20397;SDS011;10358;49.590;11.030;2023-05-10T03:03:50;12.40;;;6.27;;
20397;SDS011;10358;49.590;11.030;2023-05-10T03:06:15;8.77;;;6.00;;
20397;SDS011;10358;49.590;11.030;2023-05-10T03:08:41;7.80;;;5.37;;
20397;SDS011;10358;49.590;11.030;2023-05-10T03:13:44;6.47;;;3.60;;
20397;SDS011;10358;49.590;11.030;2023-05-10T03:16:16;3.67;;;2.03;;
20397;SDS011;10358;49.590;11.030;2023-05-10T03:19:01;2.63;;;1.90;;
20397;SDS011;10358;49.590;11.030;2023-05-10T03:21:49;2.70;;;1.70;;
20397;SDS011;10358;49.590;11.030;2023-05-10T03:24:16;6.20;;;1.67;;
20397;SDS011;10358;49.590;11.030;2023-05-10T03:26:46;2.27;;;1.50;;
20397;SDS011;10358;49.590;11.030;2023-05-10T03:29:13;1.77;;;1.20;;
20397;SDS011;10358;49.590;11.030;2023-05-10T03:31:40;1.10;;;0.93;;
20397;SDS011;10358;49.590;11.030;2023-05-10T03:34:06;1.90;;;1.13;;
20397;SDS011;10358;49.590;11.030;2023-05-10T03:36:32;1.70;;;1.00;;
20397;SDS011;10358;49.590;11.030;2023-05-10T03:38:58;1.43;;;0.90;;
20397;SDS011;10358;49.590;11.030;2023-05-10T03:41:23;1.77;;;1.00;;
20397;SDS011;10358;49.590;11.030;2023-05-10T03:43:50;2.90;;;1.00;;
20397;SDS011;10358;49.590;11.030;2023-05-10T03:46:16;1.93;;;1.00;;
20397;SDS011;10358;49.590;11.030;2023-05-10T03:48:42;1.50;;;1.00;;
20397;SDS011;10358;49.590;11.030;2023-05-10T03:51:07;1.77;;;1.30;;
20397;SDS011;10358;49.590;11.030;2023-05-10T03:53:33;1.63;;;1.20;;
20397;SDS011;10358;49.590;11.030;2023-05-10T03:55:59;1.53;;;1.10;;
20397;SDS011;10358;49.590;11.030;2023-05-10T03:58:24;3.53;;;1.10;;
20397;SDS011;10358;49.590;11.030;2023-05-10T04:00:50;1.80;;;1.30;;
20397;SDS011;10358;49.590;11.030;2023-05-10T04:03:16;1.43;;;1.20;;
20397;SDS011;10358;49.590;11.030;2023-05-10T04:05:42;1.30;;;0.97;;
20397;SDS011;10358;49.590;11.030;2023-05-10T04:08:11;2.53;;;1.20;;
20397;SDS011;10358;49.590;11.030;2023-05-10T04:10:37;1.60;;;1.00;;
20397;SDS011;10358;49.590;11.030;2023-05-10T04:13:06;1.00;;;0.87;;
20397;SDS011;10358;49.590;11.030;2023-05-10T04:15:34;1.10;;;0.90;;
20397;SDS011;10358;49.590;11.030;2023-05-10T04:18:00;1.43;;;0.90;;
20397;SDS011;10358;49.590;11.030;2023-05-10T04:20:26;1.33;;;0.90;;
20397;SDS011;10358;49.590;11.030;2023-05-10T04:22:52;1.70;;;1.00;;
20397;SDS011;10358;49.590;11.030;2023-05-10T04:25:17;1.83;;;0.90;;
20397;SDS011;10358;49.590;11.030;2023-05-10T04:27:43;0.77;;;0.77;;
20397;SDS011;10358;49.590;11.030;2023-05-10T04:30:09;3.07;;;0.97;;
20397;SDS011;10358;49.590;11.030;2023-05-10T04:32:37;1.40;;;0.60;;
20397;SDS011;10358;49.590;11.030;2023-05-10T04:35:08;1.33;;;0.90;;
20397;SDS011;10358;49.590;11.030;2023-05-10T04:37:35;2.20;;;0.83;;
20397;SDS011;10358;49.590;11.030;2023-05-10T04:40:01;1.57;;;0.80;;
20397;SDS011;10358;49.590;11.030;2023-05-10T04:42:28;0.87;;;0.80;;
20397;SDS011;10358;49.590;11.030;2023-05-10T04:44:53;2.10;;;0.80;;
20397;SDS011;10358;49.590;11.030;2023-05-10T04:47:19;2.03;;;0.80;;
20397;SDS011;10358;49.590;11.030;2023-05-10T04:49:45;1.07;;;0.97;;
20397;SDS011;10358;49.590;11.030;2023-05-10T04:55:30;1.07;;;0.87;;
20397;SDS011;10358;49.590;11.030;2023-05-10T04:57:56;1.87;;;1.00;;
20397;SDS011;10358;49.590;11.030;2023-05-10T05:00:22;1.37;;;0.90;;
20397;SDS011;10358;49.590;11.030;2023-05-10T05:02:48;1.73;;;1.00;;
20397;SDS011;10358;49.590;11.030;2023-05-10T05:05:14;1.27;;;0.90;;
20397;SDS011;10358;49.590;11.030;2023-05-10T05:07:39;1.10;;;0.90;;
20397;SDS011;10358;49.590;11.030;2023-05-10T05:10:05;2.40;;;1.10;;
20397;SDS011;10358;49.590;11.030;2023-05-10T05:12:32;2.70;;;0.90;;
20397;SDS011;10358;49.590;11.030;2023-05-10T05:14:57;1.77;;;0.97;;
20397;SDS011;10358;49.590;11.030;2023-05-10T05:17:23;2.73;;;1.10;;
20397;SDS011;10358;49.590;11.030;2023-05-10T05:19:48;1.23;;;0.93;;
20397;SDS011;10358;49.590;11.030;2023-05-10T05:22:14;1.97;;;0.90;;
20397;SDS011;10358;49.590;11.030;2023-05-10T05:24:40;2.03;;;1.00;;
20397;SDS011;10358;49.590;11.030;2023-05-10T05:27:05;2.60;;;1.10;;
20397;SDS011;10358;49.590;11.030;2023-05-10T05:29:31;1.03;;;0.90;;
20397;SDS011;10358;49.590;11.030;2023-05-10T05:31:57;1.53;;;1.10;;
20397;SDS011;10358;49.590;11.030;2023-05-10T05:34:22;1.23;;;1.10;;
20397;SDS011;10358;49.590;11.030;2023-05-10T05:36:49;5.20;;;1.07;;
20397;SDS011;10358;49.590;11.030;2023-05-10T05:39:15;1.30;;;1.10;;
20397;SDS011;10358;49.590;11.030;2023-05-10T05:41:40;1.27;;;1.10;;
20397;SDS011;10358;49.590;11.030;2023-05-10T05:44:06;2.40;;;1.20;;
20397;SDS011;10358;49.590;11.030;2023-05-10T05:46:32;2.50;;;1.00;;
20397;SDS011;10358;49.590;11.030;2023-05-10T05:48:57;1.10;;;1.00;;
20397;SDS011;10358;49.590;11.030;2023-05-10T05:51:23;3.67;;;1.40;;
20397;SDS011;10358;49.590;11.030;2023-05-10T05:53:48;1.40;;;1.13;;
20397;SDS011;10358;49.590;11.030;2023-05-10T05:56:14;2.27;;;1.20;;
20397;SDS011;10358;49.590;11.030;2023-05-10T05:58:39;1.97;;;1.30;;
20397;SDS011;10358;49.590;11.030;2023-05-10T06:01:05;1.70;;;1.23;;
20397;SDS011;10358;49.590;11.030;2023-05-10T06:03:31;1.60;;;1.20;;
20397;SDS011;10358;49.590;11.030;2023-05-10T06:05:57;1.40;;;1.20;;
20397;SDS011;10358;49.590;11.030;2023-05-10T06:08:23;4.30;;;1.40;;
20397;SDS011;10358;49.590;11.030;2023-05-10T06:10:48;1.47;;;1.33;;
20397;SDS011;10358;49.590;11.030;2023-05-10T06:13:14;2.30;;;1.40;;
20397;SDS011;10358;49.590;11.030;2023-05-10T06:15:39;1.47;;;1.37;;
20397;SDS011;10358;49.590;11.030;2023-05-10T06:18:05;3.80;;;1.60;;
20397;SDS011;10358;49.590;11.030;2023-05-10T06:20:31;3.20;;;1.50;;
20397;SDS011;10358;49.590;11.030;2023-05-10T06:22:56;1.60;;;1.40;;
20397;SDS011;10358;49.590;11.030;2023-05-10T06:25:23;1.53;;;1.30;;
20397;SDS011;10358;49.590;11.030;2023-05-10T06:27:48;8.27;;;1.60;;
20397;SDS011;10358;49.590;11.030;2023-05-10T06:30:14;1.93;;;1.50;;
20397;SDS011;10358;49.590;11.030;2023-05-10T06:32:40;3.33;;;1.30;;
20397;SDS011;10358;49.590;11.030;2023-05-10T06:35:06;2.97;;;1.30;;
20397;SDS011;10358;49.590;11.030;2023-05-10T06:37:32;1.43;;;1.23;;
20397;SDS011;10358;49.590;11.030;2023-05-10T06:39:59;1.67;;;1.30;;
20397;SDS011;10358;49.590;11.030;2023-05-10T06:42:24;1.80;;;1.50;;
20397;SDS011;10358;49.590;11.030;2023-05-10T06:44:50;1.40;;;1.30;;
20397;SDS011;10358;49.590;11.030;2023-05-10T06:47:16;2.47;;;1.50;;
20397;SDS011;10358;49.590;11.030;2023-05-10T06:49:42;1.83;;;1.33;;
20397;SDS011;10358;49.590;11.030;2023-05-10T06:52:07;2.20;;;1.40;;
20397;SDS011;10358;49.590;11.030;2023-05-10T06:54:33;1.97;;;1.47;;
20397;SDS011;10358;49.590;11.030;2023-05-10T06:56:58;1.70;;;1.20;;
20397;SDS011;10358;49.590;11.030;2023-05-10T06:59:24;1.40;;;1.20;;
20397;SDS011;10358;49.590;11.030;2023-05-10T07:01:50;3.83;;;1.10;;
20397;SDS011;10358;49.590;11.030;2023-05-10T07:04:16;1.87;;;1.20;;
20397;SDS011;10358;49.590;11.030;2023-05-10T07:06:42;3.10;;;1.30;;
20397;SDS011;10358;49.590;11.030;2023-05-10T07:09:08;3.57;;;1.17;;
20397;SDS011;10358;49.590;11.030;2023-05-10T07:11:34;3.97;;;1.20;;
20397;SDS011;10358;49.590;11.030;2023-05-10T07:13:59;4.27;;;1.20;;
20397;SDS011;10358;49.590;11.030;2023-05-10T07:16:25;1.60;;;1.00;;
20397;SDS011;10358;49.590;11.030;2023-05-10T07:18:51;1.17;;;1.00;;
20397;SDS011;10358;49.590;11.030;2023-05-10T07:21:18;2.87;;;1.00;;
20397;SDS011;10358;49.590;11.030;2023-05-10T07:23:43;1.10;;;1.00;;
20397;SDS011;10358;49.590;11.030;2023-05-10T07:26:09;1.23;;;1.00;;
20397;SDS011;10358;49.590;11.030;2023-05-10T07:28:35;1.70;;;1.00;;
20397;SDS011;10358;49.590;11.030;2023-05-10T07:31:02;2.60;;;0.90;;
20397;SDS011;10358;49.590;11.030;2023-05-10T07:33:28;2.57;;;0.97;;
20397;SDS011;10358;49.590;11.030;2023-05-10T07:35:53;2.40;;;1.13;;
20397;SDS011;10358;49.590;11.030;2023-05-10T07:38:19;0.90;;;0.73;;
20397;SDS011;10358;49.590;11.030;2023-05-10T07:40:44;1.07;;;0.87;;
20397;SDS011;10358;49.590;11.030;2023-05-10T07:43:10;1.08;;;0.85;;
20397;SDS011;10358;49.590;11.030;2023-05-10T07:45:35;1.63;;;0.83;;
20397;SDS011;10358;49.590;11.030;2023-05-10T07:48:01;0.80;;;0.67;;
20397;SDS011;10358;49.590;11.030;2023-05-10T07:50:27;1.10;;;0.83;;
20397;SDS011;10358;49.590;11.030;2023-05-10T07:52:52;2.37;;;0.80;;
20397;SDS011;10358;49.590;11.030;2023-05-10T07:55:18;1.87;;;1.17;;
20397;SDS011;10358;49.590;11.030;2023-05-10T07:57:46;3.27;;;0.93;;
20397;SDS011;10358;49.590;11.030;2023-05-10T08:00:16;1.15;;;0.80;;
20397;SDS011;10358;49.590;11.030;2023-05-10T08:02:43;1.30;;;1.10;;
20397;SDS011;10358;49.590;11.030;2023-05-10T08:05:09;2.50;;;1.00;;
20397;SDS011;10358;49.590;11.030;2023-05-10T08:07:35;2.42;;;1.02;;
20397;SDS011;10358;49.590;11.030;2023-05-10T08:10:01;1.87;;;1.20;;
20397;SDS011;10358;49.590;11.030;2023-05-10T08:12:27;2.07;;;1.30;;
20397;SDS011;10358;49.590;11.030;2023-05-10T08:14:52;4.10;;;1.20;;
20397;SDS011;10358;49.590;11.030;2023-05-10T08:17:18;2.13;;;1.10;;
20397;SDS011;10358;49.590;11.030;2023-05-10T08:19:43;1.53;;;1.20;;
20397;SDS011;10358;49.590;11.030;2023-05-10T08:22:09;1.50;;;1.27;;
20397;SDS011;10358;49.590;11.030;2023-05-10T08:24:35;3.70;;;1.70;;
20397;SDS011;10358;49.590;11.030;2023-05-10T08:27:03;2.03;;;1.50;;
20397;SDS011;10358;49.590;11.030;2023-05-10T08:29:32;2.33;;;1.48;;
20397;SDS011;10358;49.590;11.030;2023-05-10T08:31:58;3.47;;;1.40;;
20397;SDS011;10358;49.590;11.030;2023-05-10T08:34:23;3.90;;;1.35;;
20397;SDS011;10358;49.590;11.030;2023-05-10T08:36:49;2.05;;;1.20;;
20397;SDS011;10358;49.590;11.030;2023-05-10T08:39:14;1.73;;;1.30;;
20397;SDS011;10358;49.590;11.030;2023-05-10T08:41:40;1.80;;;1.30;;
20397;SDS011;10358;49.590;11.030;2023-05-10T08:44:09;2.65;;;1.30;;
20397;SDS011;10358;49.590;11.030;2023-05-10T08:46:35;5.35;;;1.38;;
20397;SDS011;10358;49.590;11.030;2023-05-10T08:49:04;2.15;;;1.30;;
20397;SDS011;10358;49.590;11.030;2023-05-10T08:51:35;3.08;;;1.40;;
20397;SDS011;10358;49.590;11.030;2023-05-10T08:54:05;2.13;;;1.50;;
20397;SDS011;10358;49.590;11.030;2023-05-10T08:56:31;2.33;;;1.27;;
20397;SDS011;10358;49.590;11.030;2023-05-10T08:58:57;1.65;;;1.30;;
20397;SDS011;10358;49.590;11.030;2023-05-10T09:01:22;2.97;;;1.30;;
20397;SDS011;10358;49.590;11.030;2023-05-10T09:03:49;2.58;;;1.30;;
20397;SDS011;10358;49.590;11.030;2023-05-10T09:06:15;3.70;;;1.38;;
20397;SDS011;10358;49.590;11.030;2023-05-10T09:08:42;2.43;;;1.47;;
20397;SDS011;10358;49.590;11.030;2023-05-10T09:11:08;1.98;;;1.60;;
20397;SDS011;10358;49.590;11.030;2023-05-10T09:13:35;2.20;;;1.50;;
20397;SDS011;10358;49.590;11.030;2023-05-10T09:16:01;2.10;;;1.50;;
20397;SDS011;10358;49.590;11.030;2023-05-10T09:18:28;2.40;;;1.50;;
20397;SDS011;10358;49.590;11.030;2023-05-10T09:20:53;2.17;;;1.40;;
20397;SDS011;10358;49.590;11.030;2023-05-10T09:23:19;2.50;;;1.20;;
20397;SDS011;10358;49.590;11.030;2023-05-10T09:25:45;5.20;;;1.30;;
20397;SDS011;10358;49.590;11.030;2023-05-10T09:28:11;3.80;;;1.50;;
20397;SDS011;10358;49.590;11.030;2023-05-10T09:30:37;1.35;;;1.25;;
20397;SDS011;10358;49.590;11.030;2023-05-10T09:33:03;1.77;;;1.23;;
20397;SDS011;10358;49.590;11.030;2023-05-10T09:35:30;3.25;;;1.30;;
20397;SDS011;10358;49.590;11.030;2023-05-10T09:37:59;2.15;;;1.42;;
20397;SDS011;10358;49.590;11.030;2023-05-10T09:40:29;3.13;;;1.25;;
20397;SDS011;10358;49.590;11.030;2023-05-10T09:43:08;2.80;;;1.15;;
20397;SDS011;10358;49.590;11.030;2023-05-10T09:45:35;2.75;;;1.35;;
20397;SDS011;10358;49.590;11.030;2023-05-10T09:48:02;2.22;;;1.30;;
20397;SDS011;10358;49.590;11.030;2023-05-10T09:50:28;1.65;;;1.10;;
20397;SDS011;10358;49.590;11.030;2023-05-10T09:52:58;4.63;;;1.35;;
20397;SDS011;10358;49.590;11.030;2023-05-10T09:55:45;3.20;;;1.20;;
20397;SDS011;10358;49.590;11.030;2023-05-10T09:58:12;4.57;;;1.30;;
20397;SDS011;10358;49.590;11.030;2023-05-10T10:00:40;1.40;;;0.98;;
20397;SDS011;10358;49.590;11.030;2023-05-10T10:03:11;4.57;;;1.10;;
20397;SDS011;10358;49.590;11.030;2023-05-10T10:05:41;2.60;;;1.15;;
20397;SDS011;10358;49.590;11.030;2023-05-10T10:08:08;3.63;;;1.20;;
20397;SDS011;10358;49.590;11.030;2023-05-10T10:10:37;5.78;;;1.23;;
20397;SDS011;10358;49.590;11.030;2023-05-10T10:13:05;3.60;;;1.10;;
20397;SDS011;10358;49.590;11.030;2023-05-10T10:15:31;4.60;;;1.10;;
20397;SDS011;10358;49.590;11.030;2023-05-10T10:17:58;3.53;;;1.17;;
20397;SDS011;10358;49.590;11.030;2023-05-10T10:20:24;1.55;;;1.00;;
20397;SDS011;10358;49.590;11.030;2023-05-10T10:22:53;2.65;;;1.00;;
20397;SDS011;10358;49.590;11.030;2023-05-10T10:25:19;3.42;;;1.20;;
20397;SDS011;10358;49.590;11.030;2023-05-10T10:36:09;3.42;;;1.15;;
20397;SDS011;10358;49.590;11.030;2023-05-10T10:41:28;3.67;;;1.10;;
20397;SDS011;10358;49.590;11.030;2023-05-10T10:49:26;2.22;;;1.10;;
20397;SDS011;10358;49.590;11.030;2023-05-10T10:57:31;1.50;;;1.10;;
20397;SDS011;10358;49.590;11.030;2023-05-10T11:00:25;1.80;;;0.90;;
20397;SDS011;10358;49.590;11.030;2023-05-10T11:05:39;3.58;;;1.20;;
20397;SDS011;10358;49.590;11.030;2023-05-10T11:08:26;3.85;;;1.13;;
20397;SDS011;10358;49.590;11.030;2023-05-10T11:13:31;3.45;;;1.30;;
20397;SDS011;10358;49.590;11.030;2023-05-10T11:21:18;3.10;;;1.60;;
20397;SDS011;10358;49.590;11.030;2023-05-10T11:26:10;3.92;;;1.30;;
20397;SDS011;10358;49.590;11.030;2023-05-10T11:31:19;2.08;;;1.50;;
20397;SDS011;10358;49.590;11.030;2023-05-10T11:33:45;2.35;;;1.27;;
20397;SDS011;10358;49.590;11.030;2023-05-10T11:36:19;2.78;;;1.50;;
20397;SDS011;10358;49.590;11.030;2023-05-10T11:38:47;4.47;;;1.45;;
20397;SDS011;10358;49.590;11.030;2023-05-10T11:41:14;1.95;;;1.30;;
20397;SDS011;10358;49.590;11.030;2023-05-10T11:43:42;3.38;;;1.50;;
20397;SDS011;10358;49.590;11.030;2023-05-10T11:46:09;2.85;;;1.50;;
20397;SDS011;10358;49.590;11.030;2023-05-10T11:48:40;3.13;;;1.50;;
20397;SDS011;10358;49.590;11.030;2023-05-10T11:51:07;3.13;;;1.48;;
20397;SDS011;10358;49.590;11.030;2023-05-10T11:53:33;2.00;;;1.30;;
20397;SDS011;10358;49.590;11.030;2023-05-10T11:56:03;2.47;;;1.30;;
20397;SDS011;10358;49.590;11.030;2023-05-10T11:58:32;3.85;;;1.23;;
20397;SDS011;10358;49.590;11.030;2023-05-10T12:01:01;2.30;;;1.10;;
20397;SDS011;10358;49.590;11.030;2023-05-10T12:03:28;2.75;;;1.10;;
20397;SDS011;10358;49.590;11.030;2023-05-10T12:05:54;4.07;;;1.10;;
20397;SDS011;10358;49.590;11.030;2023-05-10T12:08:24;1.92;;;1.20;;
20397;SDS011;10358;49.590;11.030;2023-05-10T12:10:51;3.00;;;1.50;;
20397;SDS011;10358;49.590;11.030;2023-05-10T12:13:19;3.38;;;1.10;;
20397;SDS011;10358;49.590;11.030;2023-05-10T12:15:46;1.83;;;1.00;;
20397;SDS011;10358;49.590;11.030;2023-05-10T12:18:12;5.00;;;1.10;;
20397;SDS011;10358;49.590;11.030;2023-05-10T12:20:39;2.33;;;1.00;;
20397;SDS011;10358;49.590;11.030;2023-05-10T12:23:05;1.38;;;1.27;;
20397;SDS011;10358;49.590;11.030;2023-05-10T12:25:33;2.47;;;1.10;;
20397;SDS011;10358;49.590;11.030;2023-05-10T12:28:02;1.63;;;1.20;;
20397;SDS011;10358;49.590;11.030;2023-05-10T12:30:30;3.08;;;1.17;;
20397;SDS011;10358;49.590;11.030;2023-05-10T12:35:32;3.35;;;1.10;;
20397;SDS011;10358;49.590;11.030;2023-05-10T12:41:09;4.53;;;1.30;;
20397;SDS011;10358;49.590;11.030;2023-05-10T12:43:36;2.20;;;1.20;;
20397;SDS011;10358;49.590;11.030;2023-05-10T12:46:09;4.53;;;1.50;;
20397;SDS011;10358;49.590;11.030;2023-05-10T12:48:36;2.88;;;1.17;;
20397;SDS011;10358;49.590;11.030;2023-05-10T12:51:03;2.53;;;1.67;;
20397;SDS011;10358;49.590;11.030;2023-05-10T12:53:30;2.08;;;1.25;;
20397;SDS011;10358;49.590;11.030;2023-05-10T12:55:55;2.17;;;1.05;;
20397;SDS011;10358;49.590;11.030;2023-05-10T12:58:21;3.95;;;1.10;;
20397;SDS011;10358;49.590;11.030;2023-05-10T13:00:47;2.92;;;1.13;;
20397;SDS011;10358;49.590;11.030;2023-05-10T13:03:12;3.05;;;1.10;;
20397;SDS011;10358;49.590;11.030;2023-05-10T13:05:38;4.30;;;1.15;;
20397;SDS011;10358;49.590;11.030;2023-05-10T13:08:04;2.10;;;1.27;;
20397;SDS011;10358;49.590;11.030;2023-05-10T13:10:30;3.33;;;1.13;;
20397;SDS011;10358;49.590;11.030;2023-05-10T13:12:56;3.55;;;1.20;;
20397;SDS011;10358;49.590;11.030;2023-05-10T13:15:22;4.00;;;1.30;;
20397;SDS011;10358;49.590;11.030;2023-05-10T13:17:48;2.08;;;1.02;;
20397;SDS011;10358;49.590;11.030;2023-05-10T13:20:14;2.63;;;1.15;;
20397;SDS011;10358;49.590;11.030;2023-05-10T13:22:40;1.70;;;1.00;;
20397;SDS011;10358;49.590;11.030;2023-05-10T13:25:07;2.08;;;1.30;;
20397;SDS011;10358;49.590;11.030;2023-05-10T13:27:33;3.10;;;1.60;;
20397;SDS011;10358;49.590;11.030;2023-05-10T13:29:58;2.28;;;1.40;;
20397;SDS011;10358;49.590;11.030;2023-05-10T13:32:24;2.25;;;1.27;;
20397;SDS011;10358;49.590;11.030;2023-05-10T13:34:50;2.75;;;1.50;;
20397;SDS011;10358;49.590;11.030;2023-05-10T13:37:16;2.00;;;1.30;;
20397;SDS011;10358;49.590;11.030;2023-05-10T13:39:42;5.03;;;1.58;;
20397;SDS011;10358;49.590;11.030;2023-05-10T13:42:07;4.18;;;1.55;;
20397;SDS011;10358;49.590;11.030;2023-05-10T13:44:33;2.75;;;1.45;;
20397;SDS011;10358;49.590;11.030;2023-05-10T13:46:59;3.63;;;1.55;;
20397;SDS011;10358;49.590;11.030;2023-05-10T13:49:24;3.15;;;1.42;;
20397;SDS011;10358;49.590;11.030;2023-05-10T13:51:50;3.67;;;1.50;;
20397;SDS011;10358;49.590;11.030;2023-05-10T13:54:16;2.55;;;1.38;;
20397;SDS011;10358;49.590;11.030;2023-05-10T13:56:44;3.60;;;1.42;;
20397;SDS011;10358;49.590;11.030;2023-05-10T13:59:13;3.67;;;1.40;;
20397;SDS011;10358;49.590;11.030;2023-05-10T14:01:39;1.63;;;1.33;;
20397;SDS011;10358;49.590;11.030;2023-05-10T14:04:05;2.65;;;1.50;;
20397;SDS011;10358;49.590;11.030;2023-05-10T14:06:31;2.60;;;1.50;;
20397;SDS011;10358;49.590;11.030;2023-05-10T14:08:57;2.97;;;1.63;;
20397;SDS011;10358;49.590;11.030;2023-05-10T14:11:23;2.20;;;1.15;;
20397;SDS011;10358;49.590;11.030;2023-05-10T14:13:48;5.20;;;1.40;;
20397;SDS011;10358;49.590;11.030;2023-05-10T14:16:14;5.15;;;2.15;;
20397;SDS011;10358;49.590;11.030;2023-05-10T14:18:39;10.80;;;2.03;;
20397;SDS011;10358;49.590;11.030;2023-05-10T14:21:05;3.45;;;2.28;;
20397;SDS011;10358;49.590;11.030;2023-05-10T14:23:31;4.10;;;2.25;;
20397;SDS011;10358;49.590;11.030;2023-05-10T14:25:56;4.03;;;2.40;;
20397;SDS011;10358;49.590;11.030;2023-05-10T14:28:22;6.10;;;2.80;;
20397;SDS011;10358;49.590;11.030;2023-05-10T14:30:48;7.18;;;3.10;;
20397;SDS011;10358;49.590;11.030;2023-05-10T14:33:15;9.38;;;2.90;;
20397;SDS011;10358;49.590;11.030;2023-05-10T14:35:41;8.32;;;2.78;;
20397;SDS011;10358;49.590;11.030;2023-05-10T14:38:07;2.35;;;1.83;;
20397;SDS011;10358;49.590;11.030;2023-05-10T14:40:33;4.35;;;2.38;;
20397;SDS011;10358;49.590;11.030;2023-05-10T14:42:59;5.25;;;2.20;;
20397;SDS011;10358;49.590;11.030;2023-05-10T14:45:25;3.60;;;2.08;;
20397;SDS011;10358;49.590;11.030;2023-05-10T14:47:51;3.15;;;2.17;;
20397;SDS011;10358;49.590;11.030;2023-05-10T14:50:18;5.75;;;2.15;;
20397;SDS011;10358;49.590;11.030;2023-05-10T14:52:44;4.10;;;1.80;;
20397;SDS011;10358;49.590;11.030;2023-05-10T14:55:09;5.50;;;2.10;;
20397;SDS011;10358;49.590;11.030;2023-05-10T14:57:35;2.63;;;1.77;;
20397;SDS011;10358;49.590;11.030;2023-05-10T15:00:01;2.28;;;1.77;;
20397;SDS011;10358;49.590;11.030;2023-05-10T15:02:28;4.55;;;1.90;;
20397;SDS011;10358;49.590;11.030;2023-05-10T15:04:55;5.75;;;2.00;;
20397;SDS011;10358;49.590;11.030;2023-05-10T15:07:20;2.30;;;1.30;;
20397;SDS011;10358;49.590;11.030;2023-05-10T15:09:46;2.43;;;1.40;;
20397;SDS011;10358;49.590;11.030;2023-05-10T15:12:12;4.63;;;1.63;;
20397;SDS011;10358;49.590;11.030;2023-05-10T15:14:37;5.23;;;1.63;;
20397;SDS011;10358;49.590;11.030;2023-05-10T15:17:03;5.20;;;1.90;;
20397;SDS011;10358;49.590;11.030;2023-05-10T15:19:31;2.33;;;1.80;;
20397;SDS011;10358;49.590;11.030;2023-05-10T15:21:58;3.03;;;1.60;;
20397;SDS011;10358;49.590;11.030;2023-05-10T15:24:23;4.70;;;1.77;;
20397;SDS011;10358;49.590;11.030;2023-05-10T15:26:49;3.90;;;2.03;;
20397;SDS011;10358;49.590;11.030;2023-05-10T15:29:15;2.30;;;1.93;;
20397;SDS011;10358;49.590;11.030;2023-05-10T15:31:44;9.40;;;2.47;;
20397;SDS011;10358;49.590;11.030;2023-05-10T15:34:11;3.60;;;2.10;;